• Join FlightAware (Why Join?)
  • Login
  • US Flag 
06:54PM EDT


 

Airport Tracker/Info


-or-


 

Live Flight TrackerFlight Track Log ✈ TAM8009 ✈ 11-May-2013 ✈ SABE / AEP - SBGR / GRU

Flight Track Log - Related Links

Times and Time Zones

All times are in EDT time to prevent confusion due to time zone crossing. See the TAM8009 flight status page for this flight to view local times or setup timezone preferences in your user account.

Time Position Orientation Groundspeed Altitude Reporting Facility
EDT Latitude Longitude Course Direction KTS MPH feet Rate Location/Type
11:09AM -33.9310 -57.9960 36° Northeast 394 453 18,400  Level FlightAware
11:09AM -33.8570 -57.9320 36° Northeast 408 470 19,700 1,200 Climbing FlightAware
11:10AM -33.8240 -57.9030 36° Northeast 415 478 20,400 420 Climbing FlightAware
11:11AM -33.7710 -57.8570 36° Northeast 415 478 20,400  Level FlightAware
11:12AM -33.7050 -57.8000 36° Northeast 415 478 20,400  Level FlightAware
11:12AM -33.6660 -57.7650 37° Northeast 415 478 20,400  Level FlightAware
11:13AM -33.6260 -57.7300 36° Northeast 415 478 20,400  Level FlightAware
11:13AM -33.5870 -57.6960 36° Northeast 415 478 20,400 1,740 Level FlightAware
11:16AM -33.4280 -57.4919 47° Northeast  Level Estimated
11:17AM -33.3561 -57.4000 47° Northeast  Level Estimated
11:18AM -33.2842 -57.3083 47° Northeast  Level Estimated
11:19AM -33.2122 -57.2168 47° Northeast  Level Estimated
11:19AM -33.2190 -56.8240 47° Northeast 537 618 31,000  Level FlightAware
11:19AM -33.2280 -56.7160 96° East 538 619 31,800 1,620 Climbing FlightAware
11:20AM -33.2400 -56.5750 96° East 519 597 33,300 1,800 Climbing FlightAware
11:20AM -33.2450 -56.5270 97° East 514 592 33,800 1,200 Climbing FlightAware
11:21AM -33.2580 -56.4020 97° East 513 590 34,500 1,200 Climbing FlightAware
11:22AM -33.2690 -56.3030 98° East 503 579 35,300 1,020 Climbing FlightAware
11:22AM -33.2820 -56.1820 97° East 499 574 35,900 420 Climbing FlightAware
11:23AM -33.2920 -56.0740 96° East 497 572 35,900 60 Level FlightAware
11:24AM -33.3040 -55.9580 97° East 494 568 36,000 60 Climbing FlightAware
11:25AM -33.3140 -55.8500 96° East 488 562 36,000 -120 Level FlightAware
11:25AM -33.3220 -55.7630 96° East 486 559 35,900 -360 Descending FlightAware
11:26AM -33.3350 -55.6260 97° East 479 551 35,500 -480 Descending FlightAware
11:27AM -33.3360 -55.5280 91° East 455 524 35,000 -300 Descending FlightAware
11:28AM -33.2910 -55.3350 74° East 458 527 35,000  Level FlightAware
11:29AM -33.2540 -55.1950 72° East 458 527 35,000  Level FlightAware
11:30AM -33.2060 -55.0200 72° East 451 519 35,000  Level FlightAware
11:31AM -33.1400 -54.9390 46° Northeast 422 486 35,000  Level FlightAware
11:31AM -33.0860 -54.8990 32° Northeast 416 479 35,000  Level FlightAware
11:33AM -32.9760 -54.8180 32° Northeast 410 472 35,000  Level FlightAware
11:34AM -32.8680 -54.7370 32° Northeast 414 476 35,000  Level FlightAware
11:35AM -32.7870 -54.6770 32° Northeast 420 483 35,000  Level FlightAware
11:35AM -32.7100 -54.6200 32° Northeast 418 481 35,000  Level FlightAware
11:36AM -32.6360 -54.5650 32° Northeast 422 486 35,000  Level FlightAware
11:37AM -32.5150 -54.4760 32° Northeast 421 484 35,000  Level FlightAware
11:38AM -32.4360 -54.4190 31° Northeast 421 484 35,000  Level FlightAware
11:39AM -32.3840 -54.3800 32° Northeast 421 484 35,000  Level FlightAware
11:39AM -32.2880 -54.3090 32° Northeast 424 488 35,000  Level FlightAware
11:40AM -32.2240 -54.2620 32° Northeast 427 491 35,000  Level FlightAware
11:41AM -32.1510 -54.2090 32° Northeast 441 507 35,000  Level FlightAware
11:42AM -32.0780 -54.1560 32° Northeast 452 520 35,000  Level FlightAware
11:42AM -32.0320 -54.1220 32° Northeast 456 525 35,000 240 Level FlightAware
11:43AM -31.9400 -54.0550 32° Northeast 454 522 35,300 660 Climbing FlightAware
11:43AM -31.8690 -54.0030 32° Northeast 451 519 36,000 720 Climbing FlightAware
11:44AM -31.8010 -53.9310 42° Northeast 463 533 36,400 420 Climbing FlightAware
11:45AM -31.7400 -53.8630 43° Northeast 467 537 36,600 240 Climbing FlightAware
11:46AM -31.6680 -53.7840 43° Northeast 474 545 36,800 240 Climbing FlightAware
11:46AM -31.6070 -53.7150 44° Northeast 476 548 37,000 120 Climbing FlightAware
11:47AM -31.5420 -53.6440 43° Northeast 479 551 37,000  Level FlightAware
11:49AM -31.3320 -53.4140 43° Northeast 480 552 37,000  Level FlightAware
11:50AM -31.2600 -53.3350 43° Northeast 483 556 37,000  Level FlightAware
11:51AM -31.1860 -53.2540 43° Northeast 487 560 37,000  Level FlightAware
11:51AM -31.1200 -53.1820 43° Northeast 486 559 37,000  Level FlightAware
11:52AM -31.0570 -53.1140 43° Northeast 485 558 37,000  Level FlightAware
11:53AM -30.9780 -53.0280 43° Northeast 481 554 37,000  Level FlightAware
11:53AM -30.9160 -52.9610 43° Northeast 480 552 37,000  Level FlightAware
11:54AM -30.8510 -52.8910 43° Northeast 479 551 37,000  Level FlightAware
11:55AM -30.7770 -52.8110 43° Northeast 481 554 37,000  Level FlightAware
11:55AM -30.7030 -52.7310 43° Northeast 483 556 37,000  Level FlightAware
11:56AM -30.6480 -52.6720 43° Northeast 485 558 37,000  Level FlightAware
11:57AM -30.5940 -52.6150 42° Northeast 486 559 37,000  Level FlightAware
11:57AM -30.5290 -52.5460 42° Northeast 485 558 37,000  Level FlightAware
11:58AM -30.4580 -52.4700 43° Northeast 483 556 37,000  Level FlightAware
11:58AM -30.4070 -52.4160 42° Northeast 481 554 37,000  Level FlightAware
11:59AM -30.3420 -52.3460 43° Northeast 479 551 37,000  Level FlightAware
12:00PM -30.2770 -52.2780 42° Northeast 476 548 37,000  Level FlightAware
12:01PM -30.2020 -52.1980 43° Northeast 474 545 37,000  Level FlightAware
12:01PM -30.1370 -52.1300 42° Northeast 473 544 37,000  Level FlightAware
12:02PM -30.0670 -52.0560 42° Northeast 472 543 37,000  Level FlightAware
12:03PM -30.0020 -51.9870 43° Northeast 470 541 37,000  Level FlightAware
12:03PM -29.9370 -51.9190 42° Northeast 470 541 37,000  Level FlightAware
12:04PM -29.8640 -51.8420 42° Northeast 469 540 37,000  Level FlightAware
12:05PM -29.7990 -51.7750 42° Northeast 470 541 37,000  Level FlightAware
12:05PM -29.7290 -51.7010 43° Northeast 472 543 37,000  Level FlightAware
12:06PM -29.6640 -51.6330 42° Northeast 473 544 37,000  Level FlightAware
12:07PM -29.5890 -51.5560 42° Northeast 475 547 37,000  Level FlightAware
12:08PM -29.5240 -51.4870 43° Northeast 478 550 37,000  Level FlightAware
12:08PM -29.4410 -51.4020 42° Northeast 480 552 37,000  Level FlightAware
12:09PM -29.3850 -51.3430 43° Northeast 480 552 37,000  Level FlightAware
12:10PM -29.3260 -51.2820 42° Northeast 479 551 37,000  Level FlightAware
12:10PM -29.2530 -51.2080 41° Northeast 479 551 37,000  Level FlightAware
12:11PM -29.1870 -51.1400 42° Northeast 479 551 37,000  Level FlightAware
12:11PM -29.1380 -51.0890 42° Northeast 479 551 37,000  Level FlightAware
12:12PM -29.0620 -51.0120 42° Northeast 478 550 37,000  Level FlightAware
12:13PM -28.9960 -50.9440 42° Northeast 477 549 37,000  Level FlightAware
12:14PM -28.9320 -50.8790 42° Northeast 478 550 37,000  Level FlightAware
12:14PM -28.8580 -50.8020 42° Northeast 478 550 37,000  Level FlightAware
12:15PM -28.7920 -50.7350 42° Northeast 479 551 37,000  Level FlightAware
12:16PM -28.7260 -50.6690 41° Northeast 480 552 37,000  Level FlightAware
12:16PM -28.6590 -50.6010 42° Northeast 481 554 37,000  Level FlightAware
12:17PM -28.5820 -50.5230 42° Northeast 481 554 37,000  Level FlightAware
12:18PM -28.5090 -50.4490 42° Northeast 480 552 37,000  Level FlightAware
12:18PM -28.4440 -50.3840 41° Northeast 479 551 37,000  Level FlightAware
12:19PM -28.3680 -50.3060 42° Northeast 480 552 37,000  Level FlightAware
12:20PM -28.3100 -50.2490 41° Northeast 481 554 37,000  Level FlightAware
12:21PM -28.2360 -50.1740 42° Northeast 481 554 37,000  Level FlightAware
12:21PM -28.1760 -50.1150 41° Northeast 481 554 37,000  Level FlightAware
12:22PM -28.1100 -50.0490 41° Northeast 481 554 37,000  Level FlightAware
12:23PM -28.0370 -49.9760 41° Northeast 481 554 37,000  Level FlightAware
12:23PM -27.9660 -49.9050 41° Northeast 478 550 37,000  Level FlightAware
12:24PM -27.8930 -49.8310 42° Northeast 478 550 37,000  Level FlightAware
12:25PM -27.8290 -49.7680 41° Northeast 478 550 37,000  Level FlightAware
12:25PM -27.7600 -49.7000 41° Northeast 479 551 37,000  Level FlightAware
12:26PM -27.7040 -49.6450 41° Northeast 479 551 37,000  Level FlightAware
12:27PM -27.5620 -49.5050 41° Northeast 483 556 37,000  Level FlightAware
12:28PM -27.4820 -49.4260 41° Northeast 488 562 37,000  Level FlightAware
12:29PM -27.4000 -49.3460 41° Northeast 490 564 37,000  Level FlightAware
12:29PM -27.3410 -49.2870 42° Northeast 490 564 37,000  Level FlightAware
12:30PM -27.2810 -49.2290 41° Northeast 491 565 37,000  Level FlightAware
12:31PM -27.2310 -49.1800 41° Northeast 489 563 37,000  Level FlightAware
12:31PM -27.1550 -49.1060 41° Northeast 486 559 37,000  Level FlightAware
12:32PM -27.0900 -49.0430 41° Northeast 485 558 37,000  Level FlightAware
12:33PM -27.0220 -48.9760 41° Northeast 484 557 37,000  Level FlightAware
12:33PM -26.9560 -48.9120 41° Northeast 484 557 37,000  Level FlightAware
12:34PM -26.8790 -48.8370 41° Northeast 484 557 37,000  Level FlightAware
12:35PM -26.8110 -48.7710 41° Northeast 485 558 37,000  Level FlightAware
12:35PM -26.7340 -48.6980 40° Northeast 485 558 37,000  Level FlightAware
12:38PM -26.5436 -48.5655 32° Northeast  Level Estimated
12:38PM -26.5120 -48.4840 32° Northeast 485 558 37,000  Level FlightAware
12:38PM -26.4380 -48.4130 41° Northeast 484 557 37,000  Level FlightAware
12:39PM -26.3690 -48.3470 41° Northeast 484 557 37,000  Level FlightAware
12:40PM -26.2910 -48.2720 41° Northeast 484 557 37,000  Level FlightAware
12:40PM -26.2270 -48.2080 42° Northeast 484 557 37,000  Level FlightAware
12:41PM -26.1610 -48.1420 42° Northeast 484 557 37,000  Level FlightAware
12:42PM -26.0820 -48.0640 42° Northeast 485 558 37,000  Level FlightAware
12:42PM -26.0150 -47.9980 42° Northeast 490 564 37,000  Level FlightAware
12:43PM -25.9490 -47.9330 42° Northeast 494 568 37,000  Level FlightAware
12:44PM -25.8700 -47.8550 42° Northeast 491 565 37,000  Level FlightAware
12:45PM -25.8030 -47.7890 42° Northeast 491 565 37,000  Level FlightAware
12:45PM -25.7260 -47.7130 42° Northeast 492 566 37,000  Level FlightAware
12:46PM -25.6560 -47.6450 41° Northeast 491 565 37,000  Level FlightAware
12:47PM -25.5920 -47.5820 42° Northeast 490 564 37,000  Level FlightAware
12:48PM -25.5110 -47.5030 41° Northeast 488 562 37,000  Level FlightAware
12:48PM -25.4380 -47.4320 41° Northeast 488 562 37,000  Level FlightAware
12:49PM -25.3880 -47.3840 41° Northeast 488 562 37,000  Level FlightAware
12:50PM -25.3120 -47.3090 42° Northeast 489 563 37,000  Level FlightAware
12:50PM -25.2440 -47.2440 41° Northeast 488 562 37,000  Level FlightAware
12:51PM -25.1730 -47.1740 42° Northeast 488 562 37,000  Level FlightAware
12:52PM -25.1050 -47.1090 41° Northeast 488 562 37,000  Level FlightAware
12:52PM -25.0070 -47.0140 41° Northeast 488 562 37,000 -600 Level FlightAware
12:53PM -24.9450 -46.9540 41° Northeast 485 558 36,100 -2,280 Descending FlightAware
12:54PM -24.8760 -46.8880 41° Northeast 488 562 34,000 -2,760 Descending FlightAware
12:55PM -24.8020 -46.8170 41° Northeast 482 555 32,200 -2,160 Descending FlightAware
12:55PM -24.7310 -46.7490 41° Northeast 489 563 31,000 -2,100 Descending FlightAware
12:56PM -24.6570 -46.6790 41° Northeast 467 537 29,300 -2,220 Descending FlightAware
12:57PM -24.5820 -46.6130 39° Northeast 448 516 27,700 -1,860 Descending FlightAware
12:57PM -24.5070 -46.5720 26° Northeast 437 503 26,700 -1,200 Descending FlightAware
12:58PM -24.4440 -46.5570 12° North 434 499 26,200 -960 Descending FlightAware
12:59PM -24.3640 -46.5380 12° North 434 499 25,500 -1,080 Descending FlightAware
12:59PM -24.2910 -46.5210 12° North 426 490 24,900 -1,380 Descending FlightAware
01:00PM -24.2120 -46.5030 12° North 418 481 23,800 -1,920 Descending FlightAware
01:01PM -24.1280 -46.4840 12° North 409 471 22,200 -2,040 Descending FlightAware
01:01PM -24.0550 -46.4670 12° North 401 461 20,800 -2,040 Descending FlightAware
01:02PM -23.9870 -46.4520 11° North 397 457 19,500 -2,100 Descending FlightAware
01:03PM -23.9000 -46.4320 12° North 391 450 17,900 -1,980 Descending FlightAware
01:03PM -23.8280 -46.4160 11° North 384 442 16,600 -1,980 Descending FlightAware
01:04PM -23.7570 -46.3990 12° North 377 434 15,300 -1,860 Descending FlightAware
01:05PM -23.7030 -46.3870 12° North 374 430 14,300 -2,040 Descending FlightAware
01:05PM -23.6180 -46.3980 353° North 365 420 12,800 -1,740 Descending FlightAware
01:06PM -23.5570 -46.4200 342° North 350 403 12,000 -1,200 Descending FlightAware
01:07PM -23.4880 -46.4460 341° North 323 372 11,100 -1,140 Descending FlightAware
01:07PM -23.4470 -46.4740 328° Northwest 300 345 10,500 -1,440 Descending FlightAware
01:08PM -23.4300 -46.5060 300° West 292 336 9,700 -2,100 Descending FlightAware
01:08PM -23.4230 -46.5190 300° West 290 334 9,300 -1,800 Descending FlightAware
01:10PM -23.4020 -46.6400 281° West 274 315 6,600 -1,380 Descending FlightAware
01:12PM -23.4321 -46.4695 101° East  Level Estimated
01:12PM -23.4630 -46.5760 101° East 174 200 3,800  Level FlightAware
01:13PM -23.4510 -46.5300 74° East 154 177 3,000 -660 Descending FlightAware
01:13PM -23.4490 -46.5250 66° East 154 177 3,000 -720 Level FlightAware
01:14PM -23.4440 -46.5050 75° East 152 175 2,600 -840 Descending FlightAware